createdAt,value
2023-03-04T00:00:33.562Z,82.83
2023-03-04T00:03:01.245Z,83.21
2023-03-04T00:05:30.831Z,82.61
2023-03-04T00:07:58.497Z,83.10
2023-03-04T00:10:26.180Z,83.49
2023-03-04T00:12:55.208Z,83.33
2023-03-04T00:15:22.818Z,82.90
2023-03-04T00:17:50.636Z,83.16
2023-03-04T00:20:18.701Z,83.63
2023-03-04T00:22:47.969Z,83.99
2023-03-04T00:25:15.778Z,83.76
2023-03-04T00:27:43.387Z,84.11
2023-03-04T00:30:13.128Z,83.92
2023-03-04T00:32:40.890Z,84.07
2023-03-04T00:35:09.225Z,84.34
2023-03-04T00:37:36.856Z,85.10
2023-03-04T00:40:05.445Z,84.94
2023-03-04T00:42:33.077Z,85.34
2023-03-04T00:45:00.981Z,85.32
2023-03-04T00:47:30.055Z,84.71
2023-03-04T00:49:57.708Z,85.20
2023-03-04T00:52:25.370Z,85.51
2023-03-04T00:54:52.984Z,85.58
2023-03-04T00:57:20.725Z,85.75
2023-03-04T00:59:48.459Z,85.43
2023-03-04T01:02:16.303Z,85.73
2023-03-04T01:04:45.446Z,85.67
2023-03-04T01:07:13.059Z,85.29
2023-03-04T01:09:40.702Z,84.67
2023-03-04T01:12:08.636Z,85.00
2023-03-04T01:14:36.477Z,85.04
2023-03-04T01:17:04.521Z,85.82
2023-03-04T01:19:32.110Z,85.41
2023-03-04T01:22:01.747Z,85.55
2023-03-04T01:24:30.003Z,85.73
2023-03-04T01:26:57.741Z,84.73
2023-03-04T01:29:25.415Z,85.56
2023-03-04T01:31:53.009Z,86.14
2023-03-04T01:34:20.635Z,85.94
2023-03-04T01:37:15.151Z,86.51
2023-03-04T01:39:42.814Z,86.45
2023-03-04T01:42:18.217Z,85.96
2023-03-04T01:44:46.368Z,85.68
2023-03-04T01:47:14.796Z,85.98
2023-03-04T01:49:42.598Z,85.97
2023-03-04T01:52:13.943Z,85.46
2023-03-04T01:54:45.866Z,85.88
2023-03-04T01:57:18.551Z,85.46
2023-03-04T01:59:48.049Z,85.63
2023-03-04T02:02:15.925Z,85.21
2023-03-04T02:04:43.813Z,85.65
2023-03-04T02:07:11.713Z,86.15
2023-03-04T02:09:39.545Z,86.47
2023-03-04T02:12:08.622Z,86.64
2023-03-04T02:14:36.265Z,86.75
2023-03-04T02:17:03.935Z,86.48
2023-03-04T02:19:45.560Z,86.60
2023-03-04T02:22:13.240Z,86.58
2023-03-04T02:24:46.323Z,86.96
2023-03-04T02:27:15.498Z,86.53
2023-03-04T02:29:43.272Z,86.77
2023-03-04T02:32:13.187Z,86.47
2023-03-04T02:34:46.505Z,86.54
2023-03-04T02:37:15.051Z,86.57
2023-03-04T02:39:45.004Z,86.45
2023-03-04T02:42:13.680Z,86.58
2023-03-04T02:44:46.456Z,86.75
2023-03-04T02:47:17.753Z,87.08
2023-03-04T02:49:45.993Z,86.89
2023-03-04T02:52:16.067Z,86.57
2023-03-04T02:54:43.914Z,85.98
2023-03-04T02:57:13.307Z,87.02
2023-03-04T02:59:42.595Z,86.90
2023-03-04T03:02:10.921Z,86.82
2023-03-04T03:04:41.113Z,85.76
2023-03-04T03:07:09.561Z,85.90
2023-03-04T03:09:37.476Z,86.62
2023-03-04T03:12:05.324Z,86.29
2023-03-04T03:14:32.981Z,86.97
2023-03-04T03:17:02.030Z,86.92
2023-03-04T03:19:29.672Z,87.36
2023-03-04T03:21:57.367Z,87.02
2023-03-04T03:24:25.048Z,87.59
2023-03-04T03:26:52.913Z,87.35
2023-03-04T03:29:20.555Z,87.49
2023-03-04T03:31:48.219Z,87.38
2023-03-04T03:34:17.199Z,87.23
2023-03-04T03:36:44.803Z,87.42
2023-03-04T03:39:12.467Z,87.17
2023-03-04T03:41:40.127Z,87.42
2023-03-04T03:44:07.876Z,87.40
2023-03-04T03:46:35.916Z,87.04
2023-03-04T03:49:03.627Z,87.00
2023-03-04T03:51:32.688Z,86.98
2023-03-04T03:54:00.335Z,87.39
2023-03-04T03:56:28.061Z,87.35
2023-03-04T03:58:55.832Z,87.88
2023-03-04T04:01:23.451Z,88.24
2023-03-04T04:03:51.069Z,87.56
2023-03-04T04:06:18.851Z,88.06
2023-03-04T04:08:47.864Z,87.86
2023-03-04T04:11:15.603Z,88.19
2023-03-04T04:13:43.214Z,88.23
2023-03-04T04:16:11.707Z,88.21
2023-03-04T04:18:39.855Z,88.35
2023-03-04T04:21:07.624Z,88.06
2023-03-04T04:23:35.486Z,87.93
2023-03-04T04:26:04.929Z,88.50
2023-03-04T04:28:32.701Z,88.54
2023-03-04T04:31:00.500Z,88.33
2023-03-04T04:33:28.234Z,88.48
2023-03-04T04:35:56.099Z,88.33
2023-03-04T04:38:24.623Z,88.17
2023-03-04T04:40:52.256Z,89.29
2023-03-04T04:43:21.288Z,88.90
2023-03-04T04:45:48.955Z,88.32
2023-03-04T04:48:16.760Z,89.03
2023-03-04T04:50:44.437Z,88.74
2023-03-04T04:53:13.492Z,89.53
2023-03-04T04:55:41.153Z,89.60
2023-03-04T04:58:08.872Z,89.92
2023-03-04T05:00:37.854Z,89.87
2023-03-04T05:03:05.618Z,89.91
2023-03-04T05:05:33.264Z,89.34
2023-03-04T05:08:00.991Z,89.42
2023-03-04T05:10:28.696Z,89.12
2023-03-04T05:12:56.296Z,88.89
2023-03-04T05:15:23.964Z,89.61
2023-03-04T05:17:53.002Z,88.92
2023-03-04T05:20:20.906Z,89.11
2023-03-04T05:22:48.649Z,88.81
2023-03-04T05:25:16.374Z,88.96
2023-03-04T05:27:44.042Z,88.82
2023-03-04T05:30:13.539Z,89.20
2023-03-04T05:32:41.158Z,89.27
2023-03-04T05:35:11.073Z,89.26
2023-03-04T05:37:38.820Z,88.27
2023-03-04T05:40:07.659Z,88.85
2023-03-04T05:42:35.431Z,88.54
2023-03-04T05:45:03.255Z,88.63
2023-03-04T05:47:30.925Z,88.44
2023-03-04T05:49:58.930Z,88.59
2023-03-04T05:52:27.855Z,88.60
2023-03-04T05:54:55.468Z,88.46
2023-03-04T05:57:23.229Z,88.53
2023-03-04T05:59:50.819Z,88.28
2023-03-04T06:02:18.431Z,88.43
2023-03-04T06:04:46.124Z,88.12
2023-03-04T06:07:14.028Z,87.74
2023-03-04T06:09:45.132Z,88.13
2023-03-04T06:12:13.020Z,88.17
2023-03-04T06:14:40.691Z,88.29
2023-03-04T06:17:08.682Z,88.38
2023-03-04T06:19:38.005Z,88.41
2023-03-04T06:22:06.069Z,88.03
2023-03-04T06:24:33.809Z,88.39
2023-03-04T06:27:03.208Z,87.97
2023-03-04T06:29:31.029Z,88.56
2023-03-04T06:31:58.811Z,87.93
2023-03-04T06:34:26.544Z,87.70
2023-03-04T06:36:54.331Z,87.92
2023-03-04T06:39:21.919Z,87.21
2023-03-04T06:41:50.132Z,87.11
2023-03-04T06:44:19.948Z,86.29
2023-03-04T06:46:47.748Z,86.53
2023-03-04T06:49:15.570Z,86.24
2023-03-04T06:51:43.287Z,86.54
2023-03-04T06:54:11.083Z,86.55
2023-03-04T06:56:38.936Z,87.00
2023-03-04T06:59:06.545Z,87.30
2023-03-04T07:01:36.668Z,86.88
2023-03-04T07:04:04.724Z,87.01
2023-03-04T07:06:32.484Z,86.56
2023-03-04T07:09:02.462Z,86.24
2023-03-04T07:11:30.158Z,86.20
2023-03-04T07:13:58.185Z,86.19
2023-03-04T07:16:26.039Z,85.88
2023-03-04T07:18:59.860Z,86.41
2023-03-04T07:21:27.619Z,86.38
2023-03-04T07:23:55.619Z,86.48
2023-03-04T07:26:23.323Z,86.47
2023-03-04T07:28:52.294Z,86.13
2023-03-04T07:31:25.343Z,85.67
2023-03-04T07:33:53.299Z,85.71
2023-03-04T07:36:22.426Z,85.50
2023-03-04T07:38:51.923Z,84.89
2023-03-04T07:41:19.941Z,84.90
2023-03-04T07:43:48.177Z,83.91
2023-03-04T07:46:16.942Z,84.56
2023-03-04T07:48:44.662Z,84.26
2023-03-04T07:51:14.344Z,83.68
2023-03-04T07:53:45.803Z,83.48
2023-03-04T07:56:16.429Z,83.80
2023-03-04T07:58:44.797Z,83.53
2023-03-04T08:01:14.333Z,83.31
2023-03-04T08:03:42.087Z,82.90
2023-03-04T08:06:11.230Z,82.79
2023-03-04T08:08:39.468Z,83.04
2023-03-04T08:11:10.276Z,82.84
2023-03-04T08:13:38.015Z,82.51
2023-03-04T08:16:06.711Z,82.32
2023-03-04T08:18:34.542Z,81.42
2023-03-04T08:21:02.303Z,80.83
2023-03-04T08:23:30.035Z,80.44
2023-03-04T08:25:57.799Z,80.82
2023-03-04T08:28:26.841Z,80.25
2023-03-04T08:30:56.596Z,80.31
2023-03-04T08:33:24.266Z,80.67
2023-03-04T08:35:51.962Z,80.58
2023-03-04T08:38:19.852Z,80.51
2023-03-04T08:40:52.764Z,80.05
2023-03-04T08:43:20.521Z,79.32
2023-03-04T08:45:50.508Z,80.77
2023-03-04T08:48:18.728Z,79.58
2023-03-04T08:50:47.196Z,77.85
2023-03-04T08:53:15.566Z,78.52
2023-03-04T08:55:44.169Z,78.72
2023-03-04T08:58:12.432Z,78.44
2023-03-04T09:00:42.915Z,78.13
2023-03-04T09:03:13.846Z,77.84
2023-03-04T09:05:42.118Z,77.50
2023-03-04T09:08:09.778Z,77.18
2023-03-04T09:10:37.375Z,76.74
2023-03-04T09:13:06.324Z,77.12
2023-03-04T09:15:36.059Z,75.64
2023-03-04T09:18:04.948Z,76.62
2023-03-04T09:20:34.064Z,75.06
2023-03-04T09:23:02.233Z,74.73
2023-03-04T09:25:29.966Z,73.75
2023-03-04T09:27:57.983Z,73.82
2023-03-04T09:30:27.504Z,73.32
2023-03-04T09:32:55.980Z,72.93
2023-03-04T09:35:23.786Z,72.56
2023-03-04T09:37:53.664Z,72.33
2023-03-04T09:40:26.091Z,72.23
2023-03-04T09:42:58.043Z,71.63
2023-03-04T09:45:35.392Z,71.45
2023-03-04T09:48:04.047Z,71.49
2023-03-04T09:50:42.077Z,71.60
2023-03-04T09:53:22.025Z,71.12
2023-03-04T09:55:52.447Z,70.20
2023-03-04T09:58:34.660Z,70.56
2023-03-04T10:01:05.512Z,70.74
2023-03-04T10:03:43.101Z,70.16
2023-03-04T10:06:13.037Z,70.09
2023-03-04T10:08:48.781Z,70.12
2023-03-04T10:11:19.182Z,70.45
2023-03-04T10:13:58.777Z,70.18
2023-03-04T10:16:32.750Z,69.95
2023-03-04T10:19:08.270Z,69.65
2023-03-04T10:21:41.570Z,68.94
2023-03-04T10:24:14.764Z,69.54
2023-03-04T10:26:45.316Z,69.04
2023-03-04T10:29:17.157Z,69.50
2023-03-04T10:31:46.622Z,69.70
2023-03-04T10:34:15.620Z,69.40
2023-03-04T10:36:56.745Z,69.48
2023-03-04T10:39:29.596Z,69.56
2023-03-04T10:42:01.349Z,69.41
2023-03-04T10:44:30.298Z,68.79
2023-03-04T10:46:59.508Z,68.68
2023-03-04T10:49:28.649Z,68.59
2023-03-04T10:52:03.482Z,67.93
2023-03-04T10:54:42.258Z,68.86
2023-03-04T10:57:16.504Z,68.48
2023-03-04T10:59:50.626Z,67.88
2023-03-04T11:02:24.362Z,67.67
2023-03-04T11:04:55.003Z,68.47
2023-03-04T11:07:23.595Z,67.35
2023-03-04T11:09:52.786Z,67.50
2023-03-04T11:12:22.707Z,67.99
2023-03-04T11:14:52.662Z,67.22
2023-03-04T11:17:26.151Z,67.12
2023-03-04T11:19:59.315Z,66.38
2023-03-04T11:22:30.165Z,67.37
2023-03-04T11:25:03.413Z,66.41
2023-03-04T11:27:39.821Z,66.03
2023-03-04T11:30:30.139Z,67.35
2023-03-04T11:33:05.741Z,66.39
2023-03-04T11:35:39.393Z,65.69
2023-03-04T11:38:14.299Z,65.85
2023-03-04T11:40:47.064Z,65.70
2023-03-04T11:43:19.669Z,65.39
2023-03-04T11:46:11.447Z,65.38
2023-03-04T11:48:49.773Z,65.03
2023-03-04T11:51:24.831Z,65.71
2023-03-04T11:54:06.690Z,65.09
2023-03-04T11:56:43.300Z,64.79
2023-03-04T11:59:35.839Z,64.58
2023-03-04T12:02:14.237Z,66.10
2023-03-04T12:04:59.553Z,64.07
2023-03-04T12:07:47.274Z,64.21
2023-03-04T12:10:25.792Z,64.86
2023-03-04T12:13:30.936Z,64.74
2023-03-04T12:16:06.816Z,65.11
2023-03-04T12:18:46.645Z,64.75
2023-03-04T12:21:21.730Z,64.88
2023-03-04T12:24:08.504Z,64.87
2023-03-04T12:26:41.417Z,64.77
2023-03-04T12:29:18.426Z,64.71
2023-03-04T12:31:47.775Z,65.18
2023-03-04T12:34:39.212Z,64.30
2023-03-04T12:37:28.210Z,64.95
2023-03-04T12:40:24.601Z,64.42
2023-03-04T12:43:06.052Z,64.71
2023-03-04T12:45:44.172Z,65.04
2023-03-04T12:48:24.194Z,64.94
2023-03-04T12:50:58.924Z,64.52
2023-03-04T12:53:34.842Z,64.34
2023-03-04T12:56:06.049Z,65.98
2023-03-04T12:58:37.794Z,64.75
2023-03-04T13:01:15.911Z,65.74
2023-03-04T13:03:56.177Z,66.51
2023-03-04T13:06:37.244Z,65.36
2023-03-04T13:09:11.666Z,66.04
2023-03-04T13:11:55.853Z,65.74
2023-03-04T13:14:32.611Z,65.17
2023-03-04T13:17:03.476Z,65.29
2023-03-04T13:19:50.824Z,65.75
2023-03-04T13:22:37.241Z,65.85
2023-03-04T13:25:31.202Z,65.04
2023-03-04T13:28:24.756Z,65.76
2023-03-04T13:31:18.202Z,65.67
2023-03-04T13:33:52.530Z,66.25
2023-03-04T13:36:48.440Z,66.14
2023-03-04T13:39:31.581Z,66.30
2023-03-04T13:41:59.823Z,64.87
2023-03-04T13:44:58.466Z,65.81
2023-03-04T13:47:41.110Z,66.58
2023-03-04T13:50:36.519Z,66.00
2023-03-04T13:53:24.072Z,66.96
2023-03-04T13:56:11.479Z,65.68
2023-03-04T13:58:40.163Z,65.47
2023-03-04T14:01:24.493Z,66.14
2023-03-04T14:03:52.224Z,65.36
2023-03-04T14:06:23.545Z,65.32
2023-03-04T14:08:53.180Z,65.80
2023-03-04T14:11:27.763Z,67.14
2023-03-04T14:13:58.023Z,65.40
2023-03-04T14:16:29.279Z,65.12
2023-03-04T14:19:03.138Z,64.77
2023-03-04T14:21:32.913Z,64.88
2023-03-04T14:24:03.667Z,64.12
2023-03-04T14:26:31.725Z,65.10
2023-03-04T14:29:02.102Z,64.96
2023-03-04T14:31:32.663Z,63.39
2023-03-04T14:34:02.836Z,62.75
2023-03-04T14:36:34.253Z,62.89
2023-03-04T14:39:04.336Z,62.53
2023-03-04T14:41:35.188Z,63.29
2023-03-04T14:44:12.664Z,63.60
2023-03-04T14:46:46.143Z,63.58
2023-03-04T14:49:19.268Z,62.71
2023-03-04T14:51:50.381Z,62.82
2023-03-04T14:54:36.987Z,63.06
2023-03-04T14:57:24.717Z,63.26
2023-03-04T14:59:53.309Z,63.94
2023-03-04T15:02:31.376Z,63.52
2023-03-04T15:05:01.254Z,63.74
2023-03-04T15:07:34.968Z,63.39
2023-03-04T15:10:04.773Z,63.04
2023-03-04T15:12:35.324Z,63.26
2023-03-04T15:15:04.700Z,63.01
2023-03-04T15:17:38.521Z,62.93
2023-03-04T15:20:24.369Z,63.00
2023-03-04T15:23:01.709Z,63.16
2023-03-04T15:25:30.550Z,62.87
2023-03-04T15:28:01.102Z,62.32
2023-03-04T15:30:32.741Z,62.98
2023-03-04T15:33:01.840Z,62.95
2023-03-04T15:35:31.822Z,62.62
2023-03-04T15:38:01.606Z,63.14
2023-03-04T15:40:31.864Z,63.53
2023-03-04T15:43:01.824Z,63.57
2023-03-04T15:45:32.476Z,63.32
2023-03-04T15:48:00.156Z,63.44
2023-03-04T15:50:29.967Z,63.61
2023-03-04T15:53:02.062Z,63.26
2023-03-04T15:55:34.111Z,63.94
2023-03-04T15:58:04.308Z,63.68
2023-03-04T16:00:32.132Z,63.82
2023-03-04T16:02:59.862Z,64.30
2023-03-04T16:05:27.623Z,63.92
2023-03-04T16:07:55.389Z,63.97
2023-03-04T16:10:26.965Z,63.75
2023-03-04T16:12:56.046Z,64.60
2023-03-04T16:15:26.283Z,64.32
2023-03-04T16:17:54.472Z,63.94
2023-03-04T16:20:23.726Z,64.27
2023-03-04T16:22:54.127Z,63.94
2023-03-04T16:25:23.080Z,63.96
2023-03-04T16:27:52.996Z,64.43
2023-03-04T16:30:24.414Z,63.97
2023-03-04T16:32:52.356Z,64.63
2023-03-04T16:35:20.845Z,64.82
2023-03-04T16:37:48.547Z,64.64
2023-03-04T16:40:19.312Z,64.73
2023-03-04T16:42:47.007Z,65.27
2023-03-04T16:45:18.949Z,65.65
2023-03-04T16:47:48.588Z,65.20
2023-03-04T16:50:18.078Z,65.24
2023-03-04T16:52:46.612Z,65.14
2023-03-04T16:55:18.723Z,65.73
2023-03-04T16:57:46.477Z,65.72
2023-03-04T17:00:17.046Z,66.06
2023-03-04T17:02:45.167Z,65.46
2023-03-04T17:05:17.803Z,65.54
2023-03-04T17:07:45.641Z,65.43
2023-03-04T17:10:14.458Z,65.52
2023-03-04T17:12:42.553Z,66.04
2023-03-04T17:15:11.507Z,66.02
2023-03-04T17:17:39.612Z,66.20
2023-03-04T17:20:10.076Z,66.35
2023-03-04T17:22:39.086Z,66.01
2023-03-04T17:25:07.809Z,66.25
2023-03-04T17:27:35.439Z,66.49
2023-03-04T17:30:03.412Z,66.67
2023-03-04T17:32:32.562Z,66.73
2023-03-04T17:35:00.646Z,67.04
2023-03-04T17:37:28.404Z,67.28
2023-03-04T17:39:57.341Z,67.59
2023-03-04T17:42:24.906Z,67.79
2023-03-04T17:44:52.500Z,67.73
2023-03-04T17:47:20.120Z,67.62
2023-03-04T17:49:47.805Z,67.57
2023-03-04T17:52:15.522Z,67.87
2023-03-04T17:54:45.639Z,67.58
2023-03-04T17:57:16.506Z,68.03
2023-03-04T17:59:44.118Z,68.14
2023-03-04T18:02:15.664Z,68.01
2023-03-04T18:04:43.868Z,68.36
2023-03-04T18:07:11.550Z,68.41
2023-03-04T18:09:39.814Z,68.43
2023-03-04T18:12:08.181Z,68.31
2023-03-04T18:14:37.119Z,68.53
2023-03-04T18:17:04.868Z,68.49
2023-03-04T18:19:32.788Z,68.37
2023-03-04T18:22:00.390Z,68.97
2023-03-04T18:24:28.021Z,68.97
2023-03-04T18:26:56.808Z,69.09
2023-03-04T18:29:24.498Z,68.71
2023-03-04T18:31:53.534Z,68.67
2023-03-04T18:34:21.346Z,68.91
2023-03-04T18:36:50.380Z,68.94
2023-03-04T18:39:18.053Z,69.10
2023-03-04T18:41:45.777Z,69.00
2023-03-04T18:44:13.452Z,68.74
2023-03-04T18:46:44.189Z,69.02
2023-03-04T18:49:15.467Z,68.65
2023-03-04T18:51:43.101Z,68.90
2023-03-04T18:54:10.899Z,68.80
2023-03-04T18:56:43.726Z,68.61
2023-03-04T18:59:15.250Z,68.66
2023-03-04T19:01:42.890Z,68.63
2023-03-04T19:04:11.180Z,69.12
2023-03-04T19:06:40.350Z,68.83
2023-03-04T19:09:08.007Z,68.38
2023-03-04T19:11:35.668Z,68.53
2023-03-04T19:14:03.389Z,68.32
2023-03-04T19:16:31.240Z,68.45
2023-03-04T19:18:58.901Z,68.38
2023-03-04T19:21:26.571Z,68.36
2023-03-04T19:23:55.538Z,68.64
2023-03-04T19:26:23.418Z,68.89
2023-03-04T19:28:51.099Z,68.87
2023-03-04T19:31:18.816Z,68.38
2023-03-04T19:33:46.674Z,68.27
2023-03-04T19:36:14.425Z,68.20
2023-03-04T19:38:43.558Z,68.46
2023-03-04T19:41:14.540Z,68.37
2023-03-04T19:43:42.907Z,68.32
2023-03-04T19:46:11.614Z,68.24
2023-03-04T19:48:40.254Z,68.17
2023-03-04T19:51:15.475Z,67.71
2023-03-04T19:53:43.213Z,68.07
2023-03-04T19:56:12.541Z,68.36
2023-03-04T19:58:40.461Z,68.49
2023-03-04T20:01:08.174Z,68.47
2023-03-04T20:03:35.838Z,68.11
2023-03-04T20:06:05.064Z,68.39
2023-03-04T20:08:32.816Z,68.04
2023-03-04T20:11:00.439Z,68.19
2023-03-04T20:13:29.661Z,68.05
2023-03-04T20:15:57.319Z,68.26
2023-03-04T20:18:25.017Z,68.42
2023-03-04T20:20:53.146Z,68.26
2023-03-04T20:23:21.694Z,67.93
2023-03-04T20:25:49.334Z,67.85
2023-03-04T20:28:16.984Z,67.85
2023-03-04T20:30:47.730Z,68.21
2023-03-04T20:33:15.390Z,68.26
2023-03-04T20:35:43.185Z,68.88
2023-03-04T20:38:11.121Z,68.38
2023-03-04T20:40:40.480Z,69.08
2023-03-04T20:43:08.124Z,69.21
2023-03-04T20:45:37.349Z,68.35
2023-03-04T20:48:06.649Z,68.84
2023-03-04T20:50:34.280Z,68.58
2023-03-04T20:53:02.241Z,68.01
2023-03-04T20:55:30.353Z,68.39
2023-03-04T20:57:58.026Z,68.27
2023-03-04T21:00:26.209Z,68.50
2023-03-04T21:02:54.967Z,68.51
2023-03-04T21:05:23.983Z,68.04
2023-03-04T21:07:51.638Z,68.53
2023-03-04T21:10:20.655Z,68.07
2023-03-04T21:12:48.665Z,67.48
2023-03-04T21:15:16.412Z,67.80
2023-03-04T21:17:43.981Z,67.50
2023-03-04T21:20:15.815Z,67.68
2023-03-04T21:22:44.895Z,68.03
2023-03-04T21:25:12.516Z,67.60
2023-03-04T21:27:42.641Z,68.05
2023-03-04T21:30:12.433Z,68.60
2023-03-04T21:32:40.560Z,68.21
2023-03-04T21:35:12.883Z,68.89
2023-03-04T21:37:41.657Z,68.38
2023-03-04T21:40:12.238Z,68.74
2023-03-04T21:42:40.248Z,68.48
2023-03-04T21:45:08.702Z,68.54
2023-03-04T21:47:36.369Z,68.41
2023-03-04T21:50:04.685Z,68.23
2023-03-04T21:52:32.296Z,68.46
2023-03-04T21:55:00.645Z,68.49
2023-03-04T21:57:29.706Z,69.12
2023-03-04T21:59:57.612Z,68.82
2023-03-04T22:02:25.417Z,68.89
2023-03-04T22:04:54.744Z,69.57
2023-03-04T22:07:22.595Z,69.66
2023-03-04T22:09:50.444Z,69.16
2023-03-04T22:12:19.581Z,68.60
2023-03-04T22:14:48.778Z,68.90
2023-03-04T22:17:16.448Z,69.03
2023-03-04T22:19:44.198Z,68.79
2023-03-04T22:22:11.795Z,69.46
2023-03-04T22:24:39.450Z,69.73
2023-03-04T22:27:07.330Z,69.69
2023-03-04T22:29:34.996Z,70.09
2023-03-04T22:32:04.203Z,69.64
2023-03-04T22:34:31.845Z,69.84
2023-03-04T22:36:59.717Z,69.69
2023-03-04T22:39:27.333Z,70.00
2023-03-04T22:41:54.952Z,69.94
2023-03-04T22:44:22.542Z,69.78
2023-03-04T22:46:50.204Z,69.66
2023-03-04T22:49:19.152Z,70.16
2023-03-04T22:51:46.810Z,69.93
2023-03-04T22:54:15.629Z,70.28
2023-03-04T22:56:44.005Z,69.93
2023-03-04T22:59:11.746Z,70.30
2023-03-04T23:01:39.592Z,70.12
2023-03-04T23:04:07.245Z,70.19
2023-03-04T23:06:37.513Z,70.18
2023-03-04T23:09:05.977Z,70.24
2023-03-04T23:11:36.515Z,70.28
2023-03-04T23:14:07.261Z,70.53
2023-03-04T23:16:37.435Z,70.26
2023-03-04T23:19:05.418Z,70.40
2023-03-04T23:21:33.839Z,70.75
2023-03-04T23:24:04.130Z,70.14
2023-03-04T23:26:33.951Z,70.42
2023-03-04T23:29:02.996Z,70.43
2023-03-04T23:31:31.341Z,70.27
2023-03-04T23:33:59.829Z,70.00
2023-03-04T23:36:29.021Z,70.35
2023-03-04T23:38:57.378Z,70.35
2023-03-04T23:41:28.913Z,70.53
2023-03-04T23:43:58.572Z,70.37
2023-03-04T23:46:27.851Z,70.60
2023-03-04T23:48:56.143Z,70.84
2023-03-04T23:51:26.221Z,71.10
2023-03-04T23:53:53.852Z,70.74
2023-03-04T23:56:25.242Z,70.70
2023-03-04T23:58:54.636Z,70.83
